Tri-Cities Airport Airport (TRI)

 

Airport Diagram
Current Weather/Forecast (MVFR Conditions)
METAR KTRI 172053Z 00000KT 3SM -RA BR BKN020 OVC040 02/00 A3009 RMK AO2 SLP189 P0000 60000 T00170000 56029 PNO
TAF KTRI 171737Z 1718/1818 08003KT 4SM -RA BR BKN030 OVC050 TEMPO 1718/1719 1SM -RA OVC025 FM171900 12003KT 2SM -RA BR OVC025 FM180000 13003KT 2SM -DZ BR OVC008 FM180700 22003KT 2SM -DZ BR OVC003 FM181400 23002KT 4SM BR OVC007

All Charts
General
Chart Name Download
AIRPORT DIAGRAM
TAKEOFF MINIMUMS
ALTERNATE MINIMUMS

Departures
Chart Name Download
KINGS ONE
KINGS ONE, CONT.1

Approaches
Chart Name Download
ILS OR LOC RWY 05
ILS OR LOC RWY 23
ILS RWY 23 (SA CAT I)
ILS RWY 23 (CAT II)
RNAV (GPS) RWY 05
RNAV (GPS) RWY 09
RNAV (GPS) RWY 23
RNAV (GPS) RWY 27


Inbound Traffic (Arrivals)

No inbound traffic.


Outbound Traffic (Departures)

No outbound traffic.